createdAt,value
2023-01-27T05:00:42.570Z,-0.79
2023-01-27T05:01:42.497Z,-0.78
2023-01-27T05:02:43.174Z,-0.75
2023-01-27T05:03:42.453Z,-0.73
2023-01-27T05:04:42.409Z,-0.78
2023-01-27T05:05:42.471Z,-0.78
2023-01-27T05:06:42.450Z,-0.79
2023-01-27T05:07:42.419Z,-0.78
2023-01-27T05:08:42.401Z,-0.78
2023-01-27T05:09:42.431Z,-0.76
2023-01-27T05:10:42.414Z,-0.75
2023-01-27T05:11:42.348Z,-0.75
2023-01-27T05:12:42.320Z,-0.76
2023-01-27T05:13:49.333Z,-0.78
2023-01-27T05:14:42.275Z,-0.76
2023-01-27T05:15:42.358Z,-0.76
2023-01-27T05:16:42.352Z,-0.76
2023-01-27T05:17:42.269Z,-0.76
2023-01-27T05:18:42.228Z,-0.73
2023-01-27T05:19:42.247Z,-0.75
2023-01-27T05:20:42.250Z,-0.78
2023-01-27T05:21:42.222Z,-0.82
2023-01-27T05:22:42.204Z,-0.83
2023-01-27T05:23:42.183Z,-0.83
2023-01-27T05:24:42.406Z,-0.83
2023-01-27T05:25:42.212Z,-0.83
2023-01-27T05:26:42.146Z,-0.82
2023-01-27T05:27:42.230Z,-0.80
2023-01-27T05:28:42.144Z,-0.79
2023-01-27T05:29:42.111Z,-0.75
2023-01-27T05:30:42.270Z,-0.72
2023-01-27T05:31:42.124Z,-0.70
2023-01-27T05:32:42.077Z,-0.70
2023-01-27T05:33:42.062Z,-0.72
2023-01-27T05:34:42.040Z,-0.76
2023-01-27T05:35:42.079Z,-0.79
2023-01-27T05:36:42.015Z,-0.80
2023-01-27T05:37:42.045Z,-0.79
2023-01-27T05:38:41.985Z,-0.80
2023-01-27T05:39:41.980Z,-0.82
2023-01-27T05:40:42.010Z,-0.82
2023-01-27T05:41:41.993Z,-0.83
2023-01-27T05:42:41.925Z,-0.85
2023-01-27T05:43:41.963Z,-0.85
2023-01-27T05:44:41.907Z,-0.85
2023-01-27T05:45:41.982Z,-0.82
2023-01-27T05:46:41.922Z,-0.85
2023-01-27T05:47:41.901Z,-0.83
2023-01-27T05:48:41.868Z,-0.85
2023-01-27T05:49:41.855Z,-0.89
2023-01-27T05:50:41.856Z,-0.89
2023-01-27T05:51:41.883Z,-0.92
2023-01-27T05:52:41.820Z,-0.94
2023-01-27T05:53:41.862Z,-0.94
2023-01-27T05:54:41.864Z,-0.95
2023-01-27T05:55:41.783Z,-0.92
2023-01-27T05:56:41.820Z,-0.91
2023-01-27T05:57:41.771Z,-0.89
2023-01-27T05:58:41.764Z,-0.92
2023-01-27T05:59:41.733Z,-0.92
2023-01-27T06:00:41.702Z,-0.94
2023-01-27T06:01:41.822Z,-0.97
2023-01-27T06:02:41.762Z,-0.97
2023-01-27T06:03:41.709Z,-0.98
2023-01-27T06:04:41.658Z,-0.99
2023-01-27T06:05:41.669Z,-0.99
2023-01-27T06:06:41.647Z,-0.99
2023-01-27T06:07:41.637Z,-0.99
2023-01-27T06:08:41.606Z,-0.98
2023-01-27T06:09:41.637Z,-0.98
2023-01-27T06:10:41.594Z,-0.97
2023-01-27T06:11:41.623Z,-0.97
2023-01-27T06:12:41.556Z,-0.95
2023-01-27T06:13:41.571Z,-0.95
2023-01-27T06:14:41.535Z,-0.95
2023-01-27T06:15:41.565Z,-0.97
2023-01-27T06:16:41.608Z,-0.95
2023-01-27T06:17:41.523Z,-0.95
2023-01-27T06:18:41.643Z,-0.95
2023-01-27T06:19:41.485Z,-0.95
2023-01-27T06:20:41.464Z,-0.95
2023-01-27T06:21:41.663Z,-0.95
2023-01-27T06:22:41.432Z,-0.94
2023-01-27T06:23:41.432Z,-0.95
2023-01-27T06:24:41.401Z,-0.97
2023-01-27T06:25:41.409Z,-0.99
2023-01-27T06:26:41.384Z,-0.97
2023-01-27T06:27:41.437Z,-0.98
2023-01-27T06:28:41.343Z,-0.97
2023-01-27T06:29:41.379Z,-0.97
2023-01-27T06:30:41.376Z,-0.97
2023-01-27T06:31:41.389Z,-0.98
2023-01-27T06:32:41.323Z,-0.97
2023-01-27T06:33:41.704Z,-0.97
2023-01-27T06:34:41.270Z,-0.97
2023-01-27T06:35:41.289Z,-0.94
2023-01-27T06:36:41.257Z,-0.95
2023-01-27T06:37:41.249Z,-0.94
2023-01-27T06:38:41.256Z,-0.94
2023-01-27T06:39:41.284Z,-0.94
2023-01-27T06:40:41.206Z,-0.97
2023-01-27T06:41:41.204Z,-0.95
2023-01-27T06:42:41.176Z,-0.94
2023-01-27T06:43:41.209Z,-0.94
2023-01-27T06:44:41.150Z,-0.92
2023-01-27T06:45:41.237Z,-0.91
2023-01-27T06:46:41.181Z,-0.92
2023-01-27T06:47:41.149Z,-0.89
2023-01-27T06:48:41.127Z,-0.89
2023-01-27T06:49:41.126Z,-0.89
2023-01-27T06:50:41.154Z,-0.89
2023-01-27T06:51:41.093Z,-0.89
2023-01-27T06:52:41.052Z,-0.89
2023-01-27T06:53:41.153Z,-0.86
2023-01-27T06:54:41.025Z,-0.85
2023-01-27T06:55:41.098Z,-0.85
2023-01-27T06:56:41.042Z,-0.85
2023-01-27T06:57:41.028Z,-0.85
2023-01-27T06:58:40.979Z,-0.83
2023-01-27T06:59:40.995Z,-0.83
2023-01-27T07:00:40.946Z,-0.82
2023-01-27T07:01:41.139Z,-0.82
2023-01-27T07:02:40.929Z,-0.83
2023-01-27T07:03:43.524Z,-0.83
2023-01-27T07:04:40.897Z,-0.83
2023-01-27T07:05:40.909Z,-0.83
2023-01-27T07:06:40.889Z,-0.80
2023-01-27T07:07:40.932Z,-0.79
2023-01-27T07:08:40.874Z,-0.78
2023-01-27T07:09:52.051Z,-0.78
2023-01-27T07:10:41.835Z,-0.79
2023-01-27T07:11:40.843Z,-0.78
2023-01-27T07:12:40.888Z,-0.78
2023-01-27T07:13:40.834Z,-0.76
2023-01-27T07:14:40.765Z,-0.75
2023-01-27T07:15:40.837Z,-0.73
2023-01-27T07:16:40.758Z,-0.75
2023-01-27T07:17:40.830Z,-0.73
2023-01-27T07:18:40.759Z,-0.72
2023-01-27T07:19:40.740Z,-0.72
2023-01-27T07:20:40.709Z,-0.70
2023-01-27T07:21:40.712Z,-0.70
2023-01-27T07:22:40.732Z,-0.72
2023-01-27T07:23:40.683Z,-0.70
2023-01-27T07:24:40.650Z,-0.70
2023-01-27T07:25:40.654Z,-0.69
2023-01-27T07:26:40.627Z,-0.69
2023-01-27T07:27:40.650Z,-0.64
2023-01-27T07:28:40.656Z,-0.64
2023-01-27T07:29:40.621Z,-0.64
2023-01-27T07:30:40.631Z,-0.65
2023-01-27T07:31:40.611Z,-0.65
2023-01-27T07:32:40.542Z,-0.65
2023-01-27T07:33:40.600Z,-0.64
2023-01-27T07:34:40.525Z,-0.61
2023-01-27T07:35:40.518Z,-0.62
2023-01-27T07:36:40.526Z,-0.60
2023-01-27T07:37:40.526Z,-0.58
2023-01-27T07:38:40.514Z,-0.57
2023-01-27T07:39:40.478Z,-0.54
2023-01-27T07:40:40.446Z,-0.54
2023-01-27T07:41:40.502Z,-0.54
2023-01-27T07:42:40.412Z,-0.54
2023-01-27T07:43:40.444Z,-0.52
2023-01-27T07:44:40.440Z,-0.52
2023-01-27T07:45:40.425Z,-0.52
2023-01-27T07:46:40.384Z,-0.52
2023-01-27T07:47:40.375Z,-0.49
2023-01-27T07:48:40.340Z,-0.51
2023-01-27T07:49:40.362Z,-0.47
2023-01-27T07:50:40.394Z,-0.47
2023-01-27T07:51:40.330Z,-0.49
2023-01-27T07:52:40.300Z,-0.47
2023-01-27T07:53:40.305Z,-0.46
2023-01-27T07:54:40.271Z,-0.44
2023-01-27T07:55:40.281Z,-0.43
2023-01-27T07:56:40.601Z,-0.46
2023-01-27T07:57:40.254Z,-0.44
2023-01-27T07:58:40.219Z,-0.44
2023-01-27T07:59:40.250Z,-0.47
2023-01-27T08:00:40.253Z,-0.44
2023-01-27T08:01:40.205Z,-0.44
2023-01-27T08:02:40.227Z,-0.44
2023-01-27T08:03:40.186Z,-0.44
2023-01-27T08:04:52.106Z,-0.42
2023-01-27T08:05:41.156Z,-0.42
2023-01-27T08:06:40.131Z,-0.42
2023-01-27T08:07:40.143Z,-0.42
2023-01-27T08:08:40.151Z,-0.44
2023-01-27T08:09:40.093Z,-0.46
2023-01-27T08:10:40.137Z,-0.47
2023-01-27T08:11:40.114Z,-0.47
2023-01-27T08:12:40.047Z,-0.47
2023-01-27T08:13:40.067Z,-0.49
2023-01-27T08:14:40.095Z,-0.51
2023-01-27T08:15:40.035Z,-0.47
2023-01-27T08:16:40.019Z,-0.46
2023-01-27T08:17:40.010Z,-0.47
2023-01-27T08:18:39.967Z,-0.44
2023-01-27T08:19:39.994Z,-0.47
2023-01-27T08:20:40.042Z,-0.49
2023-01-27T08:21:39.960Z,-0.51
2023-01-27T08:22:39.931Z,-0.47
2023-01-27T08:23:39.963Z,-0.49
2023-01-27T08:24:39.953Z,-0.47
2023-01-27T08:25:39.999Z,-0.46
2023-01-27T08:26:39.912Z,-0.43
2023-01-27T08:27:39.884Z,-0.46
2023-01-27T08:28:39.834Z,-0.44
2023-01-27T08:29:39.859Z,-0.44
2023-01-27T08:30:39.835Z,-0.43
2023-01-27T08:31:39.866Z,-0.43
2023-01-27T08:32:39.866Z,-0.42
2023-01-27T08:33:39.805Z,-0.40
2023-01-27T08:34:39.754Z,-0.40
2023-01-27T08:35:39.793Z,-0.39
2023-01-27T08:36:39.743Z,-0.39
2023-01-27T08:37:39.748Z,-0.39
2023-01-27T08:38:39.927Z,-0.37
2023-01-27T08:39:39.721Z,-0.36
2023-01-27T08:40:39.681Z,-0.31
2023-01-27T08:41:39.701Z,-0.31
2023-01-27T08:42:39.683Z,-0.29
2023-01-27T08:43:39.675Z,-0.28
2023-01-27T08:44:39.841Z,-0.28
2023-01-27T08:45:39.668Z,-0.26
2023-01-27T08:46:39.640Z,-0.28
2023-01-27T08:47:39.603Z,-0.26
2023-01-27T08:48:39.643Z,-0.28
2023-01-27T08:49:39.593Z,-0.31
2023-01-27T08:50:39.645Z,-0.31
2023-01-27T08:51:39.557Z,-0.31
2023-01-27T08:52:39.581Z,-0.29
2023-01-27T08:53:39.539Z,-0.29
2023-01-27T08:54:39.545Z,-0.31
2023-01-27T08:55:39.550Z,-0.31
2023-01-27T08:56:39.526Z,-0.33
2023-01-27T08:57:39.490Z,-0.31
2023-01-27T08:58:39.508Z,-0.33
2023-01-27T08:59:39.466Z,-0.33
2023-01-27T09:00:39.493Z,-0.31
2023-01-27T09:01:39.546Z,-0.31
2023-01-27T09:02:39.456Z,-0.29
2023-01-27T09:03:39.431Z,-0.28
2023-01-27T09:04:39.471Z,-0.29
2023-01-27T09:05:39.376Z,-0.29
2023-01-27T09:06:39.393Z,-0.34
2023-01-27T09:07:39.672Z,-0.33
2023-01-27T09:08:39.384Z,-0.34
2023-01-27T09:09:39.338Z,-0.34
2023-01-27T09:10:39.362Z,-0.31
2023-01-27T09:11:39.320Z,-0.31
2023-01-27T09:12:39.311Z,-0.26
2023-01-27T09:13:39.330Z,-0.28
2023-01-27T09:14:39.302Z,-0.33
2023-01-27T09:15:39.264Z,-0.33
2023-01-27T09:16:39.294Z,-0.31
2023-01-27T09:17:39.242Z,-0.31
2023-01-27T09:18:39.242Z,-0.33
2023-01-27T09:19:39.237Z,-0.36
2023-01-27T09:20:39.227Z,-0.39
2023-01-27T09:21:39.200Z,-0.40
2023-01-27T09:22:39.197Z,-0.42
2023-01-27T09:23:39.157Z,-0.43
2023-01-27T09:24:39.155Z,-0.43
2023-01-27T09:25:39.185Z,-0.43
2023-01-27T09:26:39.141Z,-0.42
2023-01-27T09:27:40.165Z,-0.40
2023-01-27T09:28:39.117Z,-0.39
2023-01-27T09:29:39.087Z,-0.37
2023-01-27T09:30:40.998Z,-0.34
2023-01-27T09:31:39.118Z,-0.31
2023-01-27T09:32:39.078Z,-0.34
2023-01-27T09:33:39.030Z,-0.37
2023-01-27T09:34:39.039Z,-0.40
2023-01-27T09:35:39.053Z,-0.42
2023-01-27T09:36:39.003Z,-0.40
2023-01-27T09:37:39.058Z,-0.42
2023-01-27T09:38:38.985Z,-0.44
2023-01-27T09:39:38.959Z,-0.47
2023-01-27T09:40:39.001Z,-0.49
2023-01-27T09:41:38.940Z,-0.47
2023-01-27T09:42:38.946Z,-0.47
2023-01-27T09:43:38.898Z,-0.44
2023-01-27T09:44:38.924Z,-0.43
2023-01-27T09:45:38.920Z,-0.43
2023-01-27T09:46:38.897Z,-0.40
2023-01-27T09:47:38.877Z,-0.40
2023-01-27T09:48:38.865Z,-0.40
2023-01-27T09:49:38.840Z,-0.39
2023-01-27T09:50:38.878Z,-0.36
2023-01-27T09:51:38.798Z,-0.36
2023-01-27T09:52:47.575Z,-0.36
2023-01-27T09:53:39.785Z,-0.39
2023-01-27T09:54:38.817Z,-0.42
2023-01-27T09:55:38.795Z,-0.43
2023-01-27T09:56:38.758Z,-0.46
2023-01-27T09:57:38.744Z,-0.42
2023-01-27T09:58:38.743Z,-0.39
2023-01-27T09:59:39.206Z,-0.37
2023-01-27T10:00:38.835Z,-0.31
2023-01-27T10:01:38.738Z,-0.31
2023-01-27T10:02:38.684Z,-0.28
2023-01-27T10:03:38.655Z,-0.28
2023-01-27T10:04:38.706Z,-0.26
2023-01-27T10:05:38.681Z,-0.22
2023-01-27T10:06:38.631Z,-0.22
2023-01-27T10:07:38.599Z,-0.16
2023-01-27T10:08:38.617Z,-0.10
2023-01-27T10:09:38.591Z,-0.03
2023-01-27T10:10:38.632Z,-0.03
2023-01-27T10:11:38.553Z,-0.07
2023-01-27T10:12:38.560Z,-0.07
2023-01-27T10:13:38.526Z,-0.03
2023-01-27T10:14:38.536Z,0.04
2023-01-27T10:15:38.548Z,0.13
2023-01-27T10:16:38.531Z,0.18
2023-01-27T10:17:38.478Z,0.21
2023-01-27T10:18:38.479Z,0.21
2023-01-27T10:19:38.486Z,0.24
2023-01-27T10:20:38.583Z,0.31
2023-01-27T10:21:38.447Z,0.35
2023-01-27T10:22:38.434Z,0.36
2023-01-27T10:23:38.397Z,0.44
2023-01-27T10:24:38.625Z,0.47
2023-01-27T10:25:38.562Z,0.51
2023-01-27T10:26:38.387Z,0.58
2023-01-27T10:27:38.380Z,0.55
2023-01-27T10:28:38.356Z,0.50
2023-01-27T10:29:38.324Z,0.44
2023-01-27T10:30:38.386Z,0.46
2023-01-27T10:31:38.358Z,0.49
2023-01-27T10:32:38.324Z,0.49
2023-01-27T10:33:38.272Z,0.51
2023-01-27T10:34:38.285Z,0.61
2023-01-27T10:35:38.248Z,0.58
2023-01-27T10:36:38.274Z,0.53
2023-01-27T10:37:38.398Z,0.55
2023-01-27T10:38:38.241Z,0.53
2023-01-27T10:39:38.193Z,0.47
2023-01-27T10:40:38.219Z,0.42
2023-01-27T10:41:38.175Z,0.49
2023-01-27T10:42:38.183Z,0.55
2023-01-27T10:43:38.255Z,0.65
2023-01-27T10:44:38.188Z,0.72
2023-01-27T10:45:38.215Z,0.72
2023-01-27T10:46:38.180Z,0.70
2023-01-27T10:47:38.099Z,0.70
2023-01-27T10:48:38.110Z,0.75
2023-01-27T10:49:38.330Z,0.83
2023-01-27T10:50:38.066Z,0.79
2023-01-27T10:51:38.053Z,0.69
2023-01-27T10:52:38.072Z,0.70
2023-01-27T10:53:38.036Z,0.73
2023-01-27T10:54:38.034Z,0.75
2023-01-27T10:55:38.092Z,0.76
2023-01-27T10:56:37.993Z,0.84
2023-01-27T10:57:37.989Z,0.91
2023-01-27T10:58:37.975Z,0.97
2023-01-27T10:59:38.000Z,1.02
2023-01-27T11:01:12.973Z,1.00
2023-01-27T11:01:39.056Z,0.94
2023-01-27T11:02:37.948Z,0.90
2023-01-27T11:03:37.904Z,0.86
2023-01-27T11:04:37.938Z,0.86
2023-01-27T11:05:37.893Z,0.87
2023-01-27T11:06:37.986Z,0.87
2023-01-27T11:07:37.850Z,0.91
2023-01-27T11:08:37.864Z,0.94
2023-01-27T11:09:37.903Z,0.94
2023-01-27T11:10:37.808Z,0.91
2023-01-27T11:11:37.858Z,0.97
2023-01-27T11:12:37.799Z,1.04
2023-01-27T11:13:45.290Z,1.00
2023-01-27T11:14:40.539Z,0.96
2023-01-27T11:15:37.737Z,0.96
2023-01-27T11:16:37.851Z,1.00
2023-01-27T11:17:37.714Z,1.06
2023-01-27T11:18:37.727Z,1.00
2023-01-27T11:19:37.703Z,0.96
2023-01-27T11:20:37.705Z,0.97
2023-01-27T11:21:42.296Z,1.00
2023-01-27T11:22:37.680Z,0.97
2023-01-27T11:23:37.655Z,0.98
2023-01-27T11:24:37.682Z,0.96
2023-01-27T11:25:37.620Z,0.97
2023-01-27T11:26:37.637Z,1.02
2023-01-27T11:27:37.683Z,1.02
2023-01-27T11:28:37.641Z,1.06
2023-01-27T11:29:37.567Z,1.12
2023-01-27T11:30:37.571Z,1.15
2023-01-27T11:31:38.075Z,1.23
2023-01-27T11:32:37.635Z,1.36
2023-01-27T11:33:37.549Z,1.51
2023-01-27T11:34:37.530Z,1.58
2023-01-27T11:35:37.539Z,1.66
2023-01-27T11:36:37.504Z,1.62
2023-01-27T11:37:37.508Z,1.65
2023-01-27T11:38:37.568Z,1.52
2023-01-27T11:39:37.448Z,1.55
2023-01-27T11:40:37.463Z,1.59
2023-01-27T11:41:37.423Z,1.62
2023-01-27T11:42:37.540Z,1.50
2023-01-27T11:43:37.407Z,1.37
2023-01-27T11:44:37.397Z,1.40
2023-01-27T11:45:37.455Z,1.44
2023-01-27T11:46:37.361Z,1.51
2023-01-27T11:47:37.342Z,1.54
2023-01-27T11:48:37.481Z,1.45
2023-01-27T11:49:37.312Z,1.40
2023-01-27T11:50:37.331Z,1.40
2023-01-27T11:51:37.306Z,1.44
2023-01-27T11:52:37.335Z,1.40
2023-01-27T11:53:37.250Z,1.33
2023-01-27T11:54:37.310Z,1.29
2023-01-27T11:55:37.255Z,1.33
2023-01-27T11:56:37.231Z,1.36
2023-01-27T11:57:37.200Z,1.33
2023-01-27T11:58:37.211Z,1.29
2023-01-27T11:59:37.193Z,1.29
2023-01-27T12:00:37.258Z,1.23
2023-01-27T12:01:37.160Z,1.20
2023-01-27T12:02:37.183Z,1.15
2023-01-27T12:03:37.191Z,1.15
2023-01-27T12:04:37.184Z,1.22
2023-01-27T12:05:37.264Z,1.24
2023-01-27T12:06:37.111Z,1.24
2023-01-27T12:07:37.086Z,1.24
2023-01-27T12:08:37.100Z,1.20
2023-01-27T12:09:37.080Z,1.08
2023-01-27T12:10:37.428Z,1.08
2023-01-27T12:11:37.066Z,1.12
2023-01-27T12:12:37.056Z,1.14
2023-01-27T12:13:37.015Z,1.22
2023-01-27T12:14:37.029Z,1.20
2023-01-27T12:15:37.011Z,1.08
2023-01-27T12:16:37.067Z,1.05
2023-01-27T12:17:36.959Z,1.05
2023-01-27T12:18:36.960Z,1.08
2023-01-27T12:19:36.931Z,1.11
2023-01-27T12:20:36.939Z,1.16
2023-01-27T12:21:36.895Z,1.23
2023-01-27T12:22:36.993Z,1.26
2023-01-27T12:23:36.924Z,1.33
2023-01-27T12:24:36.888Z,1.30
2023-01-27T12:25:36.850Z,1.32
2023-01-27T12:26:36.880Z,1.34
2023-01-27T12:27:36.849Z,1.40
2023-01-27T12:28:36.882Z,1.37
2023-01-27T12:29:36.801Z,1.29
2023-01-27T12:30:36.823Z,1.22
2023-01-27T12:31:36.910Z,1.16
2023-01-27T12:32:36.793Z,1.15
2023-01-27T12:33:36.792Z,1.16
2023-01-27T12:34:36.797Z,1.22
2023-01-27T12:35:36.745Z,1.26
2023-01-27T12:36:36.730Z,1.30
2023-01-27T12:37:36.701Z,1.32
2023-01-27T12:38:36.721Z,1.32
2023-01-27T12:39:36.889Z,1.33
2023-01-27T12:40:36.678Z,1.32
2023-01-27T12:41:36.674Z,1.32
2023-01-27T12:42:36.658Z,1.20
2023-01-27T12:43:36.627Z,1.12
2023-01-27T12:44:36.648Z,1.11
2023-01-27T12:45:36.652Z,1.09
2023-01-27T12:46:36.660Z,1.08
2023-01-27T12:47:36.574Z,1.09
2023-01-27T12:48:36.574Z,1.12
2023-01-27T12:49:36.632Z,1.12
2023-01-27T12:50:36.686Z,1.12
2023-01-27T12:51:36.533Z,1.16
2023-01-27T12:52:36.539Z,1.15
2023-01-27T12:53:36.491Z,1.16
2023-01-27T12:54:36.522Z,1.23
2023-01-27T12:55:36.476Z,1.22
2023-01-27T12:56:36.522Z,1.22
2023-01-27T12:57:36.443Z,1.16
2023-01-27T12:58:36.456Z,1.20
2023-01-27T12:59:43.457Z,1.20
2023-01-27T13:00:43.439Z,1.20
2023-01-27T13:01:43.579Z,1.22
2023-01-27T13:02:43.877Z,1.24
2023-01-27T13:03:43.495Z,1.26
2023-01-27T13:04:37.457Z,1.26
2023-01-27T13:05:36.353Z,1.26
2023-01-27T13:06:36.319Z,1.27
2023-01-27T13:07:36.696Z,1.26
2023-01-27T13:08:36.344Z,1.27
2023-01-27T13:09:36.359Z,1.27
2023-01-27T13:10:36.302Z,1.30
2023-01-27T13:11:36.280Z,1.23
2023-01-27T13:12:36.260Z,1.20
2023-01-27T13:13:36.322Z,1.16
2023-01-27T13:14:36.302Z,1.12
2023-01-27T13:15:36.242Z,1.08
2023-01-27T13:16:36.335Z,1.08
2023-01-27T13:17:36.210Z,1.06
2023-01-27T13:18:36.208Z,1.09
2023-01-27T13:19:36.204Z,1.09
2023-01-27T13:20:36.150Z,1.15
2023-01-27T13:21:36.214Z,1.11
2023-01-27T13:22:36.129Z,1.14
2023-01-27T13:23:36.423Z,1.20
2023-01-27T13:24:36.110Z,1.26
2023-01-27T13:25:36.098Z,1.32
2023-01-27T13:26:36.087Z,1.36
2023-01-27T13:27:36.079Z,1.37
2023-01-27T13:28:51.172Z,1.32
2023-01-27T13:29:37.096Z,1.34
2023-01-27T13:30:36.076Z,1.29
2023-01-27T13:31:36.036Z,1.22
2023-01-27T13:32:35.996Z,1.12
2023-01-27T13:33:36.029Z,1.09
2023-01-27T13:34:36.041Z,1.04
2023-01-27T13:35:35.995Z,1.05
2023-01-27T13:36:35.972Z,1.06
2023-01-27T13:37:36.024Z,1.11
2023-01-27T13:38:35.923Z,1.09
2023-01-27T13:39:36.034Z,1.11
2023-01-27T13:40:36.037Z,1.06
2023-01-27T13:41:35.912Z,0.98
2023-01-27T13:42:35.877Z,1.00
2023-01-27T13:43:35.922Z,0.96
2023-01-27T13:44:37.057Z,0.96
2023-01-27T13:45:35.883Z,0.97
2023-01-27T13:46:35.821Z,0.97
2023-01-27T13:47:35.852Z,1.00
2023-01-27T13:48:35.821Z,1.08
2023-01-27T13:49:35.871Z,1.08
2023-01-27T13:50:35.808Z,1.09
2023-01-27T13:51:38.073Z,1.11
2023-01-27T13:52:35.781Z,1.15
2023-01-27T13:53:35.748Z,1.14
2023-01-27T13:54:35.722Z,1.14
2023-01-27T13:55:36.417Z,1.05
2023-01-27T13:56:35.684Z,1.04
2023-01-27T13:57:35.703Z,0.96
2023-01-27T13:58:35.681Z,0.90
2023-01-27T13:59:35.676Z,0.86
2023-01-27T14:00:35.741Z,0.86
2023-01-27T14:01:35.943Z,0.86
2023-01-27T14:02:35.608Z,0.79
2023-01-27T14:03:35.748Z,0.78
2023-01-27T14:04:35.611Z,0.80
2023-01-27T14:05:35.609Z,0.79
2023-01-27T14:06:35.575Z,0.78
2023-01-27T14:07:35.723Z,0.78
2023-01-27T14:08:35.548Z,0.79
2023-01-27T14:09:35.551Z,0.75
2023-01-27T14:10:35.524Z,0.79
2023-01-27T14:11:35.529Z,0.83
2023-01-27T14:12:35.521Z,0.86
2023-01-27T14:13:35.685Z,0.87
2023-01-27T14:14:35.482Z,0.84
2023-01-27T14:15:35.511Z,0.86
2023-01-27T14:16:35.435Z,0.83
2023-01-27T14:17:35.512Z,0.75
2023-01-27T14:18:35.433Z,0.70
2023-01-27T14:19:35.490Z,0.72
2023-01-27T14:20:35.414Z,0.72
2023-01-27T14:21:40.691Z,0.68
2023-01-27T14:22:36.462Z,0.66
2023-01-27T14:23:35.413Z,0.68
2023-01-27T14:24:35.654Z,0.70
2023-01-27T14:25:35.389Z,0.69
2023-01-27T14:26:35.308Z,0.68
2023-01-27T14:27:35.368Z,0.62
2023-01-27T14:28:35.515Z,0.61
2023-01-27T14:29:35.321Z,0.60
2023-01-27T14:30:35.363Z,0.58
2023-01-27T14:31:35.287Z,0.60
2023-01-27T14:32:35.235Z,0.61
2023-01-27T14:33:35.263Z,0.58
2023-01-27T14:34:35.217Z,0.60
2023-01-27T14:35:35.247Z,0.61
2023-01-27T14:36:35.417Z,0.61
2023-01-27T14:37:35.255Z,0.61
2023-01-27T14:38:35.235Z,0.61
2023-01-27T14:39:35.201Z,0.60
2023-01-27T14:40:35.132Z,0.58
2023-01-27T14:41:35.150Z,0.55
2023-01-27T14:42:35.705Z,0.51
2023-01-27T14:43:35.111Z,0.50
2023-01-27T14:44:43.638Z,0.50
2023-01-27T14:45:36.104Z,0.50
2023-01-27T14:46:35.118Z,0.46
2023-01-27T14:47:35.059Z,0.44
2023-01-27T14:48:35.385Z,0.42
2023-01-27T14:49:35.038Z,0.44
2023-01-27T14:50:35.014Z,0.44
2023-01-27T14:51:35.140Z,0.46
2023-01-27T14:52:34.965Z,0.46
2023-01-27T14:53:34.977Z,0.41
2023-01-27T14:54:35.225Z,0.38
2023-01-27T14:55:34.990Z,0.41
2023-01-27T14:56:34.923Z,0.44
2023-01-27T14:57:34.932Z,0.46
2023-01-27T14:58:34.914Z,0.49
2023-01-27T14:59:34.942Z,0.50
2023-01-27T15:00:35.117Z,0.50
2023-01-27T15:01:34.985Z,0.46
2023-01-27T15:02:34.855Z,0.42
2023-01-27T15:03:41.872Z,0.39
2023-01-27T15:04:37.580Z,0.33
2023-01-27T15:05:42.251Z,0.32
2023-01-27T15:06:42.940Z,0.32
2023-01-27T15:07:42.871Z,0.32
2023-01-27T15:08:34.766Z,0.35
2023-01-27T15:09:34.815Z,0.38
2023-01-27T15:10:34.750Z,0.38
2023-01-27T15:11:34.841Z,0.39
2023-01-27T15:12:34.808Z,0.39
2023-01-27T15:13:34.724Z,0.39
2023-01-27T15:14:34.747Z,0.39
2023-01-27T15:15:34.714Z,0.41
2023-01-27T15:16:34.708Z,0.41
2023-01-27T15:17:35.571Z,0.36
2023-01-27T15:18:34.695Z,0.35
2023-01-27T15:19:34.653Z,0.31
2023-01-27T15:20:34.628Z,0.26
2023-01-27T15:21:34.635Z,0.24
2023-01-27T15:22:34.706Z,0.23
2023-01-27T15:23:34.737Z,0.24
2023-01-27T15:24:34.571Z,0.26
2023-01-27T15:25:34.627Z,0.26
2023-01-27T15:26:34.592Z,0.24
2023-01-27T15:27:34.585Z,0.23
2023-01-27T15:28:34.625Z,0.24
2023-01-27T15:29:34.792Z,0.23
2023-01-27T15:30:34.511Z,0.23
2023-01-27T15:31:34.598Z,0.24
2023-01-27T15:32:36.092Z,0.24
2023-01-27T15:33:34.505Z,0.23
2023-01-27T15:34:34.476Z,0.24
2023-01-27T15:35:34.764Z,0.24
2023-01-27T15:36:34.450Z,0.24
2023-01-27T15:37:34.442Z,0.21
2023-01-27T15:38:34.410Z,0.24
2023-01-27T15:39:41.570Z,0.24
2023-01-27T15:40:35.835Z,0.24
2023-01-27T15:41:34.398Z,0.26
2023-01-27T15:42:34.341Z,0.24
2023-01-27T15:43:34.386Z,0.24
2023-01-27T15:44:34.311Z,0.24
2023-01-27T15:45:34.379Z,0.26
2023-01-27T15:46:34.372Z,0.24
2023-01-27T15:47:34.291Z,0.26
2023-01-27T15:48:34.291Z,0.23
2023-01-27T15:49:34.292Z,0.23
2023-01-27T15:50:34.343Z,0.21
2023-01-27T15:51:34.350Z,0.23
2023-01-27T15:52:34.230Z,0.24
2023-01-27T15:53:34.271Z,0.23
2023-01-27T15:54:34.230Z,0.24
2023-01-27T15:55:34.209Z,0.24
2023-01-27T15:56:34.234Z,0.23
2023-01-27T15:57:34.173Z,0.24
2023-01-27T15:58:34.161Z,0.24
2023-01-27T15:59:34.166Z,0.23
2023-01-27T16:00:34.157Z,0.24
2023-01-27T16:01:34.235Z,0.21
2023-01-27T16:02:34.139Z,0.23
2023-01-27T16:03:34.133Z,0.23
2023-01-27T16:04:34.083Z,0.23
2023-01-27T16:05:34.148Z,0.24
2023-01-27T16:06:34.089Z,0.26
2023-01-27T16:07:34.075Z,0.26
2023-01-27T16:08:34.037Z,0.28
2023-01-27T16:09:34.023Z,0.26
2023-01-27T16:10:34.083Z,0.26
2023-01-27T16:11:34.102Z,0.26
2023-01-27T16:12:34.002Z,0.24
2023-01-27T16:13:34.052Z,0.26
2023-01-27T16:14:33.978Z,0.24
2023-01-27T16:15:33.993Z,0.23
2023-01-27T16:16:34.026Z,0.21
2023-01-27T16:17:33.963Z,0.23
2023-01-27T16:18:33.893Z,0.24
2023-01-27T16:19:33.914Z,0.24
2023-01-27T16:20:33.874Z,0.23
2023-01-27T16:21:34.010Z,0.26
2023-01-27T16:22:33.939Z,0.26
2023-01-27T16:23:33.896Z,0.26
2023-01-27T16:24:33.821Z,0.28
2023-01-27T16:25:33.827Z,0.29
2023-01-27T16:26:35.031Z,0.29
2023-01-27T16:27:33.880Z,0.28
2023-01-27T16:28:33.886Z,0.28
2023-01-27T16:29:33.804Z,0.24
2023-01-27T16:30:33.764Z,0.24
2023-01-27T16:31:33.821Z,0.24
2023-01-27T16:32:34.281Z,0.23
2023-01-27T16:33:33.725Z,0.26
2023-01-27T16:34:33.732Z,0.26
2023-01-27T16:35:33.757Z,0.26
2023-01-27T16:36:33.698Z,0.24
2023-01-27T16:37:33.693Z,0.24
2023-01-27T16:38:33.706Z,0.24
2023-01-27T16:39:33.672Z,0.24
2023-01-27T16:40:33.636Z,0.26
2023-01-27T16:41:33.694Z,0.24
2023-01-27T16:42:33.601Z,0.24
2023-01-27T16:43:33.614Z,0.26
2023-01-27T16:44:33.705Z,0.26
2023-01-27T16:45:33.639Z,0.28
2023-01-27T16:46:33.570Z,0.28
2023-01-27T16:47:33.724Z,0.29
2023-01-27T16:48:33.514Z,0.28
2023-01-27T16:49:33.545Z,0.28
2023-01-27T16:50:33.602Z,0.28
2023-01-27T16:51:33.511Z,0.29
2023-01-27T16:52:41.615Z,0.26
2023-01-27T16:53:34.514Z,0.28
2023-01-27T16:54:33.519Z,0.26
2023-01-27T16:55:33.512Z,0.24
2023-01-27T16:56:33.480Z,0.24
2023-01-27T16:57:40.906Z,0.26
2023-01-27T16:58:46.647Z,0.26
2023-01-27T17:01:52.987Z,0.28
2023-01-27T17:02:52.921Z,0.26
2023-01-27T17:03:52.792Z,0.28
2023-01-27T17:04:52.769Z,0.28
2023-01-27T17:05:52.754Z,0.28
2023-01-27T17:06:52.820Z,0.26
2023-01-27T17:07:52.764Z,0.24
2023-01-27T17:08:52.731Z,0.26
2023-01-27T17:09:52.713Z,0.26
2023-01-27T17:10:52.699Z,0.24
2023-01-27T17:11:52.680Z,0.26
2023-01-27T17:12:54.449Z,0.26
2023-01-27T17:13:59.668Z,0.26
2023-01-27T17:14:52.655Z,0.26
2023-01-27T17:15:52.613Z,0.26
2023-01-27T17:16:52.665Z,0.24
2023-01-27T17:17:52.681Z,0.24
2023-01-27T17:18:53.138Z,0.24
2023-01-27T17:19:52.592Z,0.24
2023-01-27T17:20:52.585Z,0.24
2023-01-27T17:21:52.553Z,0.24
2023-01-27T17:22:52.611Z,0.24
2023-01-27T17:23:57.075Z,0.26
2023-01-27T17:24:52.527Z,0.24
2023-01-27T17:25:52.500Z,0.24
2023-01-27T17:26:52.506Z,0.26
2023-01-27T17:27:52.527Z,0.23
2023-01-27T17:28:52.485Z,0.23
2023-01-27T17:29:52.448Z,0.23
2023-01-27T17:30:52.515Z,0.23
2023-01-27T17:31:52.483Z,0.23
2023-01-27T17:32:52.651Z,0.23
2023-01-27T17:33:52.395Z,0.23
2023-01-27T17:34:52.414Z,0.24
2023-01-27T17:35:52.355Z,0.24
2023-01-27T17:36:52.365Z,0.24
2023-01-27T17:37:52.346Z,0.24
2023-01-27T17:38:52.386Z,0.24
2023-01-27T17:39:52.372Z,0.24
2023-01-27T17:40:52.324Z,0.24
2023-01-27T17:41:52.283Z,0.23
2023-01-27T17:42:52.612Z,0.23
2023-01-27T17:43:52.271Z,0.21
2023-01-27T17:44:52.290Z,0.23
2023-01-27T17:45:52.276Z,0.24
2023-01-27T17:46:52.249Z,0.23
2023-01-27T17:47:52.226Z,0.24
2023-01-27T17:48:52.343Z,0.26
2023-01-27T17:49:52.340Z,0.26
2023-01-27T17:50:52.210Z,0.24
2023-01-27T17:51:52.159Z,0.24
2023-01-27T17:52:53.115Z,0.24
2023-01-27T17:53:52.128Z,0.24
2023-01-27T17:54:52.197Z,0.23
2023-01-27T17:55:52.108Z,0.23
2023-01-27T17:56:52.138Z,0.23
2023-01-27T17:57:52.293Z,0.24
2023-01-27T17:58:52.089Z,0.23
2023-01-27T17:59:52.058Z,0.24
2023-01-27T18:00:52.128Z,0.24
2023-01-27T18:01:52.083Z,0.24
2023-01-27T18:02:52.092Z,0.24
2023-01-27T18:03:53.091Z,0.24
2023-01-27T18:04:52.019Z,0.24
2023-01-27T18:05:52.028Z,0.23
2023-01-27T18:06:52.045Z,0.24
2023-01-27T18:07:52.084Z,0.21
2023-01-27T18:08:51.987Z,0.23
2023-01-27T18:09:51.934Z,0.24
2023-01-27T18:10:52.011Z,0.23